Main page
METAR-TAF:

METAR-TAF

Airports :

Red Wing Regional Airport

Red Wing, Minnesota, United States

latitude: 44-35-25N, longitude: 092-29-10W, elevation: 784 ft

Current weather observation

The report was made 29 minutes ago, at 12:55 UTC
Wind 3 mph from the Northwest
Temperature 68°F
Humidity 83%
Pressure 29.85 in. Hg
Visibility: 10 miles
Broken clouds at a height of 800 ft

METAR: KRGK 161255Z AUTO 31003KT 10SM BKN008 20/17 A2985 RMK AO2

Time: 08:24 (13:24 UTC)


TAF: missing

Weather observations and forecasts of more than 4000 airports (METAR and TAF reports).

The available stations are represented by yellow and red dots on the map.

Hover mouse over dot to see the name of the station.

Then click to see weather observations and forecasts.

To change the map : click on the green buttons with a black cross to zoom in, on the green button with a dash to zoom out, or on the green arrows for adjacent maps.


METAR-TAF: